createdAt,value
2019-06-01T00:01:31.860Z,97252.62
2019-06-01T00:04:01.822Z,97255.77
2019-06-01T00:06:31.847Z,97248.73
2019-06-01T00:09:02.943Z,97248.50
2019-06-01T00:11:32.080Z,97246.73
2019-06-01T00:14:03.738Z,97245.98
2019-06-01T00:16:33.018Z,97240.70
2019-06-01T00:19:03.724Z,97246.24
2019-06-01T00:21:32.880Z,97247.84
2019-06-01T00:24:02.176Z,97243.59
2019-06-01T00:26:32.419Z,97243.41
2019-06-01T00:29:04.040Z,97238.53
2019-06-01T00:31:33.196Z,97231.58
2019-06-01T00:34:03.212Z,97231.54
2019-06-01T00:36:32.367Z,97228.05
2019-06-01T00:39:02.708Z,97231.08
2019-06-01T00:41:31.886Z,97233.15
2019-06-01T00:44:01.128Z,97238.60
2019-06-01T00:46:33.336Z,97231.41
2019-06-01T00:49:02.496Z,97229.30
2019-06-01T00:51:31.769Z,97226.44
2019-06-01T00:54:02.881Z,97231.84
2019-06-01T00:56:33.171Z,97226.97
2019-06-01T00:59:04.719Z,97226.77
2019-06-01T01:01:33.919Z,97226.78
2019-06-01T01:04:03.077Z,95861.09
2019-06-01T01:06:32.201Z,97224.05
2019-06-01T01:09:06.094Z,97229.95
2019-06-01T01:11:39.800Z,97223.62
2019-06-01T01:14:14.841Z,97234.00
2019-06-01T01:16:49.496Z,97226.58
2019-06-01T01:19:18.766Z,97221.52
2019-06-01T01:21:48.297Z,97228.69
2019-06-01T01:24:17.439Z,97230.06
2019-06-01T01:26:48.816Z,97230.31
2019-06-01T01:29:22.348Z,97225.53
2019-06-01T01:31:51.765Z,97227.14
2019-06-01T01:34:20.853Z,97223.42
2019-06-01T01:36:50.046Z,97221.03
2019-06-01T01:39:22.779Z,97224.48
2019-06-01T01:41:52.193Z,97226.09
2019-06-01T01:44:21.620Z,97218.27
2019-06-01T01:46:50.819Z,97216.99
2019-06-01T01:49:19.992Z,97217.53
2019-06-01T01:51:50.401Z,97220.20
2019-06-01T01:54:24.587Z,97217.70
2019-06-01T01:56:58.245Z,97218.06
2019-06-01T01:59:29.122Z,97215.94
2019-06-01T02:01:58.661Z,97214.33
2019-06-01T02:04:30.053Z,97213.75
2019-06-01T02:07:02.408Z,97207.84
2019-06-01T02:09:34.585Z,97205.58
2019-06-01T02:12:03.859Z,97205.16
2019-06-01T02:14:34.142Z,97206.23
2019-06-01T02:17:06.432Z,97202.17
2019-06-01T02:19:37.918Z,97207.48
2019-06-01T02:22:07.046Z,97201.77
2019-06-01T02:24:39.727Z,97203.13
2019-06-01T02:27:08.919Z,97197.81
2019-06-01T02:29:38.054Z,97203.09
2019-06-01T02:32:07.261Z,97202.22
2019-06-01T02:34:37.981Z,97202.83
2019-06-01T02:37:07.124Z,97199.89
2019-06-01T02:39:36.445Z,97201.00
2019-06-01T02:42:08.611Z,97195.13
2019-06-01T02:44:39.036Z,97192.20
2019-06-01T02:47:08.591Z,97217.45
2019-06-01T02:49:38.956Z,97192.65
2019-06-01T02:52:08.561Z,97196.20
2019-06-01T02:54:37.743Z,97199.14
2019-06-01T02:57:07.350Z,97198.00
2019-06-01T02:59:39.775Z,97193.69
2019-06-01T03:02:13.907Z,97196.67
2019-06-01T03:04:40.788Z,97198.81
2019-06-01T03:07:10.400Z,97193.54
2019-06-01T03:09:43.594Z,97197.76
2019-06-01T03:12:14.111Z,97196.86
2019-06-01T03:14:45.470Z,97198.21
2019-06-01T03:17:18.871Z,97196.20
2019-06-01T03:19:49.504Z,97198.52
2019-06-01T03:22:23.110Z,97199.02
2019-06-01T03:24:54.070Z,97192.61
2019-06-01T03:27:28.947Z,97193.12
2019-06-01T03:30:00.552Z,97191.11
2019-06-01T03:32:36.931Z,97193.79
2019-06-01T03:35:01.023Z,97189.67
2019-06-01T03:37:30.953Z,97195.95
2019-06-01T03:40:01.085Z,97198.39
2019-06-01T03:42:33.010Z,97197.84
2019-06-01T03:45:05.547Z,97195.72
2019-06-01T03:47:34.923Z,97196.98
2019-06-01T03:50:04.843Z,97193.81
2019-06-01T03:52:36.057Z,97194.88
2019-06-01T03:55:09.913Z,97196.27
2019-06-01T03:57:39.209Z,97200.23
2019-06-01T04:00:12.028Z,97193.55
2019-06-01T04:02:41.312Z,97194.89
2019-06-01T04:05:11.539Z,96983.77
2019-06-01T04:07:44.093Z,97192.23
2019-06-01T04:10:16.434Z,97190.13
2019-06-01T04:12:45.588Z,97190.40
2019-06-01T04:15:16.804Z,97194.55
2019-06-01T04:17:46.009Z,97181.66
2019-06-01T04:20:15.732Z,97184.88
2019-06-01T04:22:45.672Z,97184.39
2019-06-01T04:25:15.376Z,97181.48
2019-06-01T04:27:46.962Z,97173.70
2019-06-01T04:30:17.848Z,97185.10
2019-06-01T04:32:50.303Z,97183.25
2019-06-01T04:35:21.126Z,97187.56
2019-06-01T04:37:51.308Z,97183.45
2019-06-01T04:40:22.076Z,97176.31
2019-06-01T04:42:54.172Z,97166.01
2019-06-01T04:45:23.380Z,97179.09
2019-06-01T04:47:52.628Z,97174.79
2019-06-01T04:50:24.865Z,97170.29
2019-06-01T04:52:54.022Z,97180.25
2019-06-01T04:55:28.461Z,97183.13
2019-06-01T04:57:57.659Z,97184.02
2019-06-01T05:00:28.059Z,97185.52
2019-06-01T05:03:10.331Z,97180.48
2019-06-01T05:05:39.994Z,97182.77
2019-06-01T05:08:09.428Z,97177.19
2019-06-01T05:10:41.935Z,97117.34
2019-06-01T05:13:11.516Z,97170.16
2019-06-01T05:15:40.823Z,97171.33
2019-06-01T05:18:10.176Z,97169.70
2019-06-01T05:20:39.362Z,97172.65
2019-06-01T05:23:08.608Z,97170.03
2019-06-01T05:25:40.381Z,97173.44
2019-06-01T05:28:09.530Z,97178.45
2019-06-01T05:30:42.072Z,97176.09
2019-06-01T05:33:26.571Z,97173.95
2019-06-01T05:35:47.982Z,97177.77
2019-06-01T05:38:24.053Z,97186.32
2019-06-01T05:40:54.742Z,97189.87
2019-06-01T05:43:27.674Z,97186.88
2019-06-01T05:45:56.824Z,97185.73
2019-06-01T05:48:30.530Z,97189.56
2019-06-01T05:50:57.636Z,97186.42
2019-06-01T05:53:29.970Z,97183.41
2019-06-01T05:56:02.811Z,97181.35
2019-06-01T05:58:32.386Z,97174.91
2019-06-01T06:01:08.105Z,97177.75
2019-06-01T06:03:40.429Z,97184.77
2019-06-01T06:06:08.352Z,97174.99
2019-06-01T06:08:38.599Z,97182.03
2019-06-01T06:11:14.915Z,97174.63
2019-06-01T06:13:44.359Z,97175.92
2019-06-01T06:16:13.846Z,97179.02
2019-06-01T06:18:46.317Z,97175.25
2019-06-01T06:21:20.303Z,97171.20
2019-06-01T06:23:49.789Z,97177.23
2019-06-01T06:26:20.491Z,97174.41
2019-06-01T06:28:52.368Z,97174.59
2019-06-01T06:31:21.711Z,97173.17
2019-06-01T06:33:56.973Z,97171.14
2019-06-01T06:36:28.227Z,97172.50
2019-06-01T06:38:57.854Z,97176.70
2019-06-01T06:41:31.477Z,97171.26
2019-06-01T06:44:03.389Z,97180.73
2019-06-01T06:46:34.177Z,97179.59
2019-06-01T06:49:03.369Z,97189.73
2019-06-01T06:51:32.879Z,97187.42
2019-06-01T06:54:04.526Z,97185.47
2019-06-01T06:56:35.470Z,97182.78
2019-06-01T06:59:04.604Z,97180.59
2019-06-01T07:01:33.795Z,97178.88
2019-06-01T07:04:12.702Z,97182.48
2019-06-01T07:06:34.991Z,97183.99
2019-06-01T07:09:05.572Z,97182.08
2019-06-01T07:11:35.438Z,97183.97
2019-06-01T07:14:05.009Z,97176.04
2019-06-01T07:16:34.436Z,97186.40
2019-06-01T07:19:07.376Z,97181.83
2019-06-01T07:21:38.928Z,97182.41
2019-06-01T07:24:10.953Z,97181.33
2019-06-01T07:26:40.350Z,97181.76
2019-06-01T07:29:11.548Z,97177.52
2019-06-01T07:31:46.193Z,97174.89
2019-06-01T07:34:31.053Z,97178.34
2019-06-01T07:36:49.609Z,97174.66
2019-06-01T07:39:18.776Z,97177.17
2019-06-01T07:41:49.308Z,97177.28
2019-06-01T07:44:22.645Z,97180.11
2019-06-01T07:46:57.982Z,97177.17
2019-06-01T07:49:29.155Z,97170.11
2019-06-01T07:52:12.833Z,97180.09
2019-06-01T07:54:36.973Z,97177.95
2019-06-01T07:57:06.090Z,97173.33
2019-06-01T07:59:36.433Z,97178.91
2019-06-01T08:02:05.991Z,97171.03
2019-06-01T08:04:51.856Z,97172.01
2019-06-01T08:07:06.322Z,97169.97
2019-06-01T08:09:36.557Z,97171.31
2019-06-01T08:12:07.365Z,97176.23
2019-06-01T08:14:36.483Z,97177.92
2019-06-01T08:17:09.281Z,97176.69
2019-06-01T08:19:44.461Z,97176.23
2019-06-01T08:22:14.077Z,97176.84
2019-06-01T08:24:44.867Z,97177.14
2019-06-01T08:27:15.198Z,97178.29
2019-06-01T08:29:44.330Z,97162.59
2019-06-01T08:32:17.094Z,97162.39
2019-06-01T08:34:46.698Z,97164.50
2019-06-01T08:37:19.074Z,97163.75
2019-06-01T08:39:48.977Z,97152.03
2019-06-01T08:42:18.375Z,97159.34
2019-06-01T08:44:47.556Z,97156.37
2019-06-01T08:47:19.685Z,97147.72
2019-06-01T08:49:48.828Z,97156.90
2019-06-01T08:52:18.339Z,97161.44
2019-06-01T08:54:48.843Z,97153.94
2019-06-01T08:57:17.961Z,97154.23
2019-06-01T08:59:47.605Z,97149.37
2019-06-01T09:02:17.293Z,97151.88
2019-06-01T09:04:49.374Z,97150.61
2019-06-01T09:07:18.689Z,97148.25
2019-06-01T09:09:47.856Z,97142.80
2019-06-01T09:12:18.235Z,97138.20
2019-06-01T09:14:48.583Z,97159.98
2019-06-01T09:17:18.916Z,97139.51
2019-06-01T09:19:48.356Z,97142.05
2019-06-01T09:22:23.845Z,97137.73
2019-06-01T09:25:18.902Z,97140.98
2019-06-01T09:27:57.022Z,97133.09
2019-06-01T09:30:27.884Z,97138.38
2019-06-01T09:33:06.103Z,97131.92
2019-06-01T09:35:54.348Z,97136.47
2019-06-01T09:38:12.822Z,97140.92
2019-06-01T09:40:42.798Z,97142.00
2019-06-01T09:43:15.379Z,97136.77
2019-06-01T09:45:47.394Z,97141.63
2019-06-01T09:48:29.977Z,97132.34
2019-06-01T09:50:56.834Z,97131.97
2019-06-01T09:53:28.980Z,97128.58
2019-06-01T09:55:59.981Z,97131.77
2019-06-01T09:58:34.858Z,97131.77
2019-06-01T10:01:09.670Z,97123.53
2019-06-01T10:03:39.741Z,97119.78
2019-06-01T10:06:13.953Z,97118.81
2019-06-01T10:08:42.506Z,97112.47
2019-06-01T10:11:13.099Z,97110.53
2019-06-01T10:13:46.130Z,97117.34
2019-06-01T10:16:24.307Z,97115.71
2019-06-01T10:18:57.423Z,97111.81
2019-06-01T10:21:26.936Z,97117.49
2019-06-01T10:23:56.118Z,97123.25
2019-06-01T10:26:26.975Z,97121.48
2019-06-01T10:28:57.397Z,97111.20
2019-06-01T10:31:28.273Z,97111.20
2019-06-01T10:33:57.609Z,97112.83
2019-06-01T10:36:31.923Z,97111.59
2019-06-01T10:39:01.543Z,97114.73
2019-06-01T10:41:33.235Z,97112.02
2019-06-01T10:44:04.054Z,97071.48
2019-06-01T10:46:33.863Z,97100.98
2019-06-01T10:49:08.274Z,97101.99
2019-06-01T10:51:38.380Z,97094.40
2019-06-01T10:54:07.550Z,97094.40
2019-06-01T10:56:38.767Z,97094.58
2019-06-01T10:59:11.992Z,97089.63
2019-06-01T11:01:42.931Z,97101.41
2019-06-01T11:04:13.895Z,97099.00
2019-06-01T11:06:48.330Z,97098.34
2019-06-01T11:09:15.492Z,97100.94
2019-06-01T11:11:47.829Z,97089.67
2019-06-01T11:14:17.059Z,97078.23
2019-06-01T11:16:54.853Z,97082.92
2019-06-01T11:19:19.428Z,97089.75
2019-06-01T11:21:48.595Z,97085.02
2019-06-01T11:24:24.042Z,97087.54
2019-06-01T11:26:53.248Z,97079.56
2019-06-01T11:29:22.493Z,97083.52
2019-06-01T11:31:51.768Z,97078.41
2019-06-01T11:34:25.301Z,97079.56
2019-06-01T11:37:05.036Z,97080.24
2019-06-01T11:39:29.171Z,97073.33
2019-06-01T11:42:01.459Z,97065.65
2019-06-01T11:44:30.624Z,97059.22
2019-06-01T11:47:01.213Z,97064.09
2019-06-01T11:49:33.251Z,97058.97
2019-06-01T11:52:04.980Z,97058.73
2019-06-01T11:54:35.072Z,97053.36
2019-06-01T11:57:05.997Z,97047.52
2019-06-01T11:59:37.300Z,97050.50
2019-06-01T12:02:09.011Z,97047.38
2019-06-01T12:04:39.798Z,97047.84
2019-06-01T12:07:17.471Z,97038.23
2019-06-01T12:09:45.980Z,97042.78
2019-06-01T12:12:15.331Z,97038.28
2019-06-01T12:14:44.581Z,97039.27
2019-06-01T12:17:14.672Z,97037.17
2019-06-01T12:19:44.796Z,97033.91
2019-06-01T12:22:17.744Z,97032.16
2019-06-01T12:24:47.386Z,97026.34
2019-06-01T12:27:16.843Z,97029.27
2019-06-01T12:29:48.273Z,97014.92
2019-06-01T12:32:18.070Z,97017.94
2019-06-01T12:34:50.251Z,97009.03
2019-06-01T12:37:34.505Z,97009.08
2019-06-01T12:39:53.837Z,97011.77
2019-06-01T12:42:24.068Z,97002.20
2019-06-01T12:44:55.421Z,97009.14
2019-06-01T12:47:43.932Z,97010.05
2019-06-01T12:50:15.240Z,97017.97
2019-06-01T12:52:46.577Z,97002.04
2019-06-01T12:55:19.279Z,97004.52
2019-06-01T12:57:49.276Z,96995.62
2019-06-01T13:00:22.520Z,96999.73
2019-06-01T13:03:06.734Z,97004.53
2019-06-01T13:05:25.665Z,96995.81
2019-06-01T13:08:02.251Z,95904.97
2019-06-01T13:10:27.025Z,96989.58
2019-06-01T13:12:57.440Z,96992.11
2019-06-01T13:15:28.693Z,96985.66
2019-06-01T13:17:58.022Z,96976.11
2019-06-01T13:20:29.006Z,96970.11
2019-06-01T13:22:59.410Z,96979.72
2019-06-01T13:25:30.095Z,96976.91
2019-06-01T13:28:00.462Z,96980.30
2019-06-01T13:30:29.711Z,96975.02
2019-06-01T13:33:01.455Z,96967.22
2019-06-01T13:35:32.249Z,96964.16
2019-06-01T13:38:11.830Z,96960.70
2019-06-01T13:40:32.497Z,96961.82
2019-06-01T13:43:01.695Z,96956.19
2019-06-01T13:45:30.939Z,96954.21
2019-06-01T13:48:03.687Z,96956.47
2019-06-01T13:50:32.844Z,96952.64
2019-06-01T13:53:05.947Z,96950.08
2019-06-01T13:55:36.067Z,96951.69
2019-06-01T13:58:06.185Z,96953.30
2019-06-01T14:00:38.387Z,96944.55
2019-06-01T14:03:07.745Z,96935.80
2019-06-01T14:05:37.159Z,96931.48
2019-06-01T14:08:07.378Z,96934.12
2019-06-01T14:10:38.934Z,96924.59
2019-06-01T14:13:20.453Z,96920.96
2019-06-01T14:15:51.614Z,96916.05
2019-06-01T14:18:20.805Z,96922.89
2019-06-01T14:20:56.841Z,96921.89
2019-06-01T14:23:27.000Z,96922.21
2019-06-01T14:26:01.025Z,96921.06
2019-06-01T14:28:32.123Z,96914.10
2019-06-01T14:31:03.779Z,96914.31
2019-06-01T14:33:32.934Z,96916.08
2019-06-01T14:36:02.134Z,96908.09
2019-06-01T14:38:45.934Z,96910.08
2019-06-01T14:41:03.023Z,96908.06
2019-06-01T14:43:36.081Z,96901.23
2019-06-01T14:46:05.351Z,96902.20
2019-06-01T14:48:35.612Z,96900.42
2019-06-01T14:51:06.492Z,96902.87
2019-06-01T14:53:39.084Z,96907.32
2019-06-01T14:56:08.293Z,96901.09
2019-06-01T14:58:39.303Z,96895.09
2019-06-01T15:01:08.459Z,96889.94
2019-06-01T15:03:37.686Z,96895.61
2019-06-01T15:06:07.930Z,96842.18
2019-06-01T15:09:02.477Z,96883.88
2019-06-01T15:11:16.676Z,96893.80
2019-06-01T15:13:45.911Z,96894.25
2019-06-01T15:16:16.979Z,96892.77
2019-06-01T15:18:47.360Z,96890.66
2019-06-01T15:21:22.080Z,96887.87
2019-06-01T15:23:51.956Z,96888.12
2019-06-01T15:26:25.137Z,96888.70
2019-06-01T15:28:59.295Z,96881.43
2019-06-01T15:31:32.104Z,96877.80
2019-06-01T15:34:01.848Z,96898.35
2019-06-01T15:36:36.482Z,96878.68
2019-06-01T15:39:23.517Z,96877.55
2019-06-01T15:41:40.560Z,96879.09
2019-06-01T15:44:10.893Z,96872.63
2019-06-01T15:46:40.063Z,96873.69
2019-06-01T15:49:09.391Z,96872.32
2019-06-01T15:51:44.575Z,96873.09
2019-06-01T15:54:13.789Z,96872.81
2019-06-01T15:56:45.121Z,96874.70
2019-06-01T15:59:17.544Z,96865.81
2019-06-01T16:02:05.931Z,96864.23
2019-06-01T16:04:35.309Z,96859.31
2019-06-01T16:07:05.603Z,96865.22
2019-06-01T16:09:42.631Z,96862.23
2019-06-01T16:12:09.424Z,96861.16
2019-06-01T16:14:39.741Z,96861.70
2019-06-01T16:17:13.499Z,96864.02
2019-06-01T16:19:46.588Z,96856.91
2019-06-01T16:22:15.684Z,96859.50
2019-06-01T16:24:48.805Z,96857.18
2019-06-01T16:27:19.062Z,96853.03
2019-06-01T16:29:48.360Z,96846.56
2019-06-01T16:32:23.683Z,96844.39
2019-06-01T16:34:52.904Z,96845.31
2019-06-01T16:37:23.678Z,96844.24
2019-06-01T16:39:59.627Z,96847.48
2019-06-01T16:42:28.880Z,96843.72
2019-06-01T16:44:58.010Z,96843.24
2019-06-01T16:47:28.262Z,96839.09
2019-06-01T16:50:00.117Z,96838.72
2019-06-01T16:52:33.887Z,96840.70
2019-06-01T16:55:08.927Z,96837.47
2019-06-01T16:57:38.282Z,96830.92
2019-06-01T17:00:08.664Z,96835.16
2019-06-01T17:02:39.145Z,96838.48
2019-06-01T17:05:11.673Z,96834.20
2019-06-01T17:07:43.169Z,96836.42
2019-06-01T17:10:25.861Z,96835.80
2019-06-01T17:12:50.545Z,96829.87
2019-06-01T17:15:25.573Z,96832.47
2019-06-01T17:17:54.753Z,96830.83
2019-06-01T17:20:42.044Z,96832.73
2019-06-01T17:23:26.311Z,96839.58
2019-06-01T17:25:43.970Z,96835.09
2019-06-01T17:28:13.287Z,96839.62
2019-06-01T17:30:45.457Z,96841.58
2019-06-01T17:33:14.587Z,96834.49
2019-06-01T17:35:46.399Z,96834.18
2019-06-01T17:38:15.507Z,96838.89
2019-06-01T17:40:49.711Z,96837.98
2019-06-01T17:43:19.311Z,96839.95
2019-06-01T17:45:48.674Z,96835.77
2019-06-01T17:48:25.503Z,96838.98
2019-06-01T17:50:48.654Z,96832.79
2019-06-01T17:53:21.505Z,96838.22
2019-06-01T17:55:52.347Z,96833.92
2019-06-01T17:58:21.494Z,96835.52
2019-06-01T18:00:57.441Z,96831.22
2019-06-01T18:03:28.629Z,96838.28
2019-06-01T18:06:01.777Z,96839.14
2019-06-01T18:08:30.990Z,96833.33
2019-06-01T18:11:00.126Z,96828.77
2019-06-01T18:13:29.359Z,96832.21
2019-06-01T18:16:00.559Z,96838.02
2019-06-01T18:18:32.843Z,96833.94
2019-06-01T18:21:02.286Z,96833.94
2019-06-01T18:23:32.461Z,96828.36
2019-06-01T18:26:02.561Z,96829.19
2019-06-01T18:28:35.396Z,96829.19
2019-06-01T18:31:04.627Z,96828.91
2019-06-01T18:33:34.098Z,96828.03
2019-06-01T18:36:08.105Z,96827.77
2019-06-01T18:38:37.273Z,96826.45
2019-06-01T18:41:18.612Z,96827.27
2019-06-01T18:43:48.553Z,96827.27
2019-06-01T18:46:21.924Z,96828.37
2019-06-01T18:48:51.322Z,96825.97
2019-06-01T18:51:22.272Z,96828.62
2019-06-01T18:53:51.421Z,96826.73
2019-06-01T18:56:21.944Z,96827.04
2019-06-01T18:58:51.231Z,96829.98
2019-06-01T19:01:21.140Z,96826.62
2019-06-01T19:03:51.557Z,96830.17
2019-06-01T19:06:20.687Z,96831.78
2019-06-01T19:08:49.930Z,96822.66
2019-06-01T19:11:32.930Z,96828.50
2019-06-01T19:13:51.653Z,96839.14
2019-06-01T19:16:21.247Z,96831.45
2019-06-01T19:18:52.218Z,96834.62
2019-06-01T19:21:26.120Z,96834.44
2019-06-01T19:23:54.846Z,96839.86
2019-06-01T19:26:24.182Z,96837.58
2019-06-01T19:28:56.366Z,96841.64
2019-06-01T19:31:25.518Z,96844.30
2019-06-01T19:33:57.126Z,96839.22
2019-06-01T19:36:30.039Z,96843.59
2019-06-01T19:39:01.743Z,96842.59
2019-06-01T19:41:44.137Z,96951.55
2019-06-01T19:44:02.368Z,96846.66
2019-06-01T19:46:31.492Z,96844.06
2019-06-01T19:49:00.939Z,96851.20
2019-06-01T19:51:32.452Z,96854.58
2019-06-01T19:54:03.050Z,96862.64
2019-06-01T19:56:38.194Z,96863.03
2019-06-01T19:59:11.814Z,96864.87
2019-06-01T20:01:41.303Z,96867.51
2019-06-01T20:04:12.459Z,96869.70
2019-06-01T20:06:44.872Z,96874.55
2019-06-01T20:09:15.339Z,96637.50
2019-06-01T20:11:58.617Z,96870.70
2019-06-01T20:14:16.431Z,96880.45
2019-06-01T20:16:48.058Z,96872.22
2019-06-01T20:19:17.816Z,96868.80
2019-06-01T20:21:50.342Z,96876.30
2019-06-01T20:24:22.789Z,96876.31
2019-06-01T20:26:54.470Z,96874.67
2019-06-01T20:29:24.958Z,96879.45
2019-06-01T20:31:55.610Z,96876.33
2019-06-01T20:34:25.087Z,96880.36
2019-06-01T20:36:57.192Z,96877.67
2019-06-01T20:39:28.704Z,96876.91
2019-06-01T20:41:57.843Z,96876.66
2019-06-01T20:44:28.219Z,96877.13
2019-06-01T20:47:00.267Z,96881.28
2019-06-01T20:49:31.989Z,96879.17
2019-06-01T20:52:01.207Z,96875.17
2019-06-01T20:54:32.155Z,96871.59
2019-06-01T20:57:02.081Z,96876.52
2019-06-01T20:59:32.930Z,96874.92
2019-06-01T21:02:08.835Z,96876.66
2019-06-01T21:04:39.202Z,96879.73
2019-06-01T21:07:08.402Z,96874.34
2019-06-01T21:09:38.486Z,96875.78
2019-06-01T21:12:08.005Z,96879.36
2019-06-01T21:14:39.127Z,96881.82
2019-06-01T21:17:08.615Z,96879.36
2019-06-01T21:19:39.596Z,96876.91
2019-06-01T21:22:08.952Z,96879.85
2019-06-01T21:24:38.052Z,96877.25
2019-06-01T21:27:12.247Z,96880.80
2019-06-01T21:29:43.469Z,96880.98
2019-06-01T21:32:15.123Z,96877.65
2019-06-01T21:34:45.527Z,96877.46
2019-06-01T21:37:19.896Z,96885.69
2019-06-01T21:39:49.331Z,96888.18
2019-06-01T21:42:19.632Z,96888.23
2019-06-01T21:44:49.424Z,96882.02
2019-06-01T21:47:21.695Z,96885.31
2019-06-01T21:49:52.673Z,96890.05
2019-06-01T21:52:26.237Z,96893.00
2019-06-01T21:54:56.891Z,96887.41
2019-06-01T21:57:30.222Z,96885.94
2019-06-01T21:59:59.760Z,96877.25
2019-06-01T22:02:29.597Z,96882.94
2019-06-01T22:05:01.088Z,96882.80
2019-06-01T22:07:33.295Z,96878.66
2019-06-01T22:10:02.373Z,96883.50
2019-06-01T22:12:34.000Z,96884.22
2019-06-01T22:15:04.888Z,96880.31
2019-06-01T22:17:36.014Z,96880.50
2019-06-01T22:20:10.481Z,96873.82
2019-06-01T22:22:39.589Z,96873.20
2019-06-01T22:25:09.178Z,96876.70
2019-06-01T22:27:38.517Z,96878.36
2019-06-01T22:30:08.147Z,96868.42
2019-06-01T22:32:41.500Z,96868.71
2019-06-01T22:35:24.653Z,96867.52
2019-06-01T22:37:54.006Z,96864.59
2019-06-01T22:40:25.179Z,96863.16
2019-06-01T22:42:56.560Z,96867.23
2019-06-01T22:45:33.960Z,96868.19
2019-06-01T22:48:07.456Z,96863.46
2019-06-01T22:50:37.347Z,96860.87
2019-06-01T22:53:10.117Z,96873.64
2019-06-01T22:55:40.496Z,96868.02
2019-06-01T22:58:09.590Z,96857.66
2019-06-01T23:00:39.145Z,96857.77
2019-06-01T23:03:08.271Z,96863.55
2019-06-01T23:05:41.554Z,96858.30
2019-06-01T23:08:11.406Z,96858.53
2019-06-01T23:10:40.755Z,96856.77
2019-06-01T23:13:10.353Z,96853.05
2019-06-01T23:15:39.475Z,96875.31
2019-06-01T23:18:08.618Z,96853.09
2019-06-01T23:20:37.707Z,96849.38
2019-06-01T23:23:06.785Z,96843.11
2019-06-01T23:25:36.250Z,96842.36
2019-06-01T23:28:08.623Z,96848.95
2019-06-01T23:30:42.347Z,96841.02
2019-06-01T23:33:11.486Z,96839.48
2019-06-01T23:36:05.018Z,96838.30
2019-06-01T23:38:34.164Z,96834.44
2019-06-01T23:41:05.640Z,96828.81
2019-06-01T23:43:37.241Z,96835.61
2019-06-01T23:46:06.740Z,96832.48
2019-06-01T23:48:38.355Z,96831.63
2019-06-01T23:51:07.463Z,96828.72
2019-06-01T23:53:36.578Z,96824.69
2019-06-01T23:56:07.340Z,96827.12
2019-06-01T23:58:36.551Z,96821.77
